createdAt,value
2019-01-27T00:02:10.698Z,19.6
2019-01-27T00:05:16.573Z,19.6
2019-01-27T00:08:22.494Z,19.6
2019-01-27T00:11:28.454Z,19.6
2019-01-27T00:14:34.389Z,19.6
2019-01-27T00:17:40.338Z,19.6
2019-01-27T00:20:46.308Z,19.6
2019-01-27T00:23:52.422Z,19.6
2019-01-27T00:26:58.271Z,19.6
2019-01-27T00:30:04.250Z,19.6
2019-01-27T00:33:10.191Z,19.6
2019-01-27T00:36:16.167Z,19.6
2019-01-27T00:39:22.106Z,19.6
2019-01-27T00:42:28.101Z,19.6
2019-01-27T00:45:34.128Z,19.6
2019-01-27T00:48:40.149Z,19.6
2019-01-27T00:51:46.177Z,19.6
2019-01-27T00:54:52.218Z,19.6
2019-01-27T00:57:58.207Z,19.6
2019-01-27T01:01:04.184Z,19.6
2019-01-27T01:04:10.086Z,19.6
2019-01-27T01:07:16.035Z,19.6
2019-01-27T01:10:21.984Z,19.6
2019-01-27T01:13:27.993Z,19.5
2019-01-27T01:16:34.035Z,19.6
2019-01-27T01:19:39.992Z,19.5
2019-01-27T01:22:45.900Z,19.6
2019-01-27T01:25:51.819Z,19.6
2019-01-27T01:28:57.744Z,19.5
2019-01-27T01:32:03.882Z,19.6
2019-01-27T01:35:09.788Z,19.5
2019-01-27T01:38:15.761Z,19.5
2019-01-27T01:41:21.750Z,19.5
2019-01-27T01:44:27.680Z,19.6
2019-01-27T01:47:33.684Z,19.5
2019-01-27T01:50:39.684Z,19.5
2019-01-27T01:53:45.557Z,19.6
2019-01-27T01:56:51.503Z,19.5
2019-01-27T01:59:57.366Z,19.5
2019-01-27T02:03:03.415Z,19.5
2019-01-27T02:06:09.275Z,19.5
2019-01-27T02:09:15.236Z,19.5
2019-01-27T02:12:21.097Z,19.5
2019-01-27T02:15:27.033Z,19.5
2019-01-27T02:18:32.909Z,19.5
2019-01-27T02:21:38.849Z,19.5
2019-01-27T02:24:44.739Z,19.5
2019-01-27T02:27:50.760Z,19.5
2019-01-27T02:30:56.836Z,19.4
2019-01-27T02:34:02.793Z,19.5
2019-01-27T02:37:08.764Z,19.5
2019-01-27T02:40:14.693Z,19.5
2019-01-27T02:43:20.588Z,19.4
2019-01-27T02:46:26.595Z,19.4
2019-01-27T02:49:32.663Z,19.4
2019-01-27T02:52:38.585Z,19.5
2019-01-27T02:55:44.588Z,19.5
2019-01-27T02:58:50.607Z,19.4
2019-01-27T03:01:59.233Z,19.4
2019-01-27T03:05:05.316Z,19.5
2019-01-27T03:08:11.321Z,19.4
2019-01-27T03:11:17.191Z,19.4
2019-01-27T03:14:23.208Z,19.4
2019-01-27T03:17:29.179Z,19.4
2019-01-27T03:20:35.165Z,19.4
2019-01-27T03:23:41.156Z,19.5
2019-01-27T03:26:47.232Z,19.4
2019-01-27T03:29:53.246Z,19.4
2019-01-27T03:32:59.111Z,19.4
2019-01-27T03:36:05.064Z,19.4
2019-01-27T03:39:10.924Z,19.4
2019-01-27T03:42:16.857Z,19.4
2019-01-27T03:45:22.816Z,19.4
2019-01-27T03:48:28.756Z,19.4
2019-01-27T03:51:34.747Z,19.4
2019-01-27T03:54:40.681Z,19.4
2019-01-27T03:57:46.702Z,19.4
2019-01-27T04:00:52.707Z,19.4
2019-01-27T04:03:58.689Z,19.4
2019-01-27T04:07:04.749Z,19.4
2019-01-27T04:10:10.700Z,19.4
2019-01-27T04:13:19.115Z,19.3
2019-01-27T04:16:25.083Z,19.4
2019-01-27T04:19:31.074Z,19.3
2019-01-27T04:22:37.284Z,19.3
2019-01-27T04:25:43.314Z,19.3
2019-01-27T04:28:49.254Z,19.3
2019-01-27T04:31:55.425Z,19.4
2019-01-27T04:35:01.273Z,19.3
2019-01-27T04:38:07.250Z,19.3
2019-01-27T04:41:13.286Z,19.3
2019-01-27T04:44:19.154Z,19.3
2019-01-27T04:47:25.131Z,19.3
2019-01-27T04:50:31.074Z,19.3
2019-01-27T04:53:37.055Z,19.3
2019-01-27T04:56:43.075Z,19.3
2019-01-27T04:59:48.997Z,19.3
2019-01-27T05:02:54.874Z,19.3
2019-01-27T05:06:01.020Z,19.3
2019-01-27T05:09:06.951Z,19.3
2019-01-27T05:12:12.955Z,19.3
2019-01-27T05:15:18.936Z,19.3
2019-01-27T05:18:24.853Z,19.3
2019-01-27T05:21:34.400Z,19.3
2019-01-27T05:24:40.447Z,19.3
2019-01-27T05:27:46.509Z,19.3
2019-01-27T05:30:52.678Z,19.2
2019-01-27T05:33:58.706Z,19.3
2019-01-27T05:37:04.765Z,19.3
2019-01-27T05:40:10.743Z,19.3
2019-01-27T05:43:16.731Z,19.3
2019-01-27T05:46:22.644Z,19.2
2019-01-27T05:49:28.650Z,19.3
2019-01-27T05:52:34.727Z,19.2
2019-01-27T05:55:40.690Z,19.2
2019-01-27T05:58:46.656Z,19.2
2019-01-27T06:01:52.635Z,19.2
2019-01-27T06:05:01.122Z,19.2
2019-01-27T06:08:07.042Z,19.2
2019-01-27T06:11:13.040Z,19.2
2019-01-27T06:14:19.101Z,19.2
2019-01-27T06:17:25.011Z,19.2
2019-01-27T06:20:31.013Z,19.2
2019-01-27T06:23:36.943Z,19.2
2019-01-27T06:26:42.929Z,19.2
2019-01-27T06:29:48.989Z,19.2
2019-01-27T06:32:54.897Z,19.2
2019-01-27T06:36:01.126Z,19.2
2019-01-27T06:39:07.078Z,19.2
2019-01-27T06:42:14.794Z,19.2
2019-01-27T06:45:20.860Z,19.2
2019-01-27T06:48:29.877Z,19.2
2019-01-27T06:51:35.878Z,19.2
2019-01-27T06:54:41.739Z,19.2
2019-01-27T06:57:47.802Z,19.2
2019-01-27T07:00:53.668Z,19.2
2019-01-27T07:03:59.610Z,19.2
2019-01-27T07:07:05.572Z,19.3
2019-01-27T07:10:11.685Z,19.3
2019-01-27T07:13:17.700Z,19.3
2019-01-27T07:16:23.553Z,19.3
2019-01-27T07:19:29.545Z,19.3
2019-01-27T07:22:35.610Z,19.3
2019-01-27T07:25:41.649Z,19.3
2019-01-27T07:28:47.699Z,19.3
2019-01-27T07:31:53.556Z,19.3
2019-01-27T07:34:59.544Z,19.3
2019-01-27T07:38:05.747Z,19.3
2019-01-27T07:41:11.855Z,19.3
2019-01-27T07:44:17.926Z,19.3
2019-01-27T07:47:23.985Z,19.3
2019-01-27T07:50:30.087Z,19.3
2019-01-27T07:53:37.290Z,19.3
2019-01-27T07:56:43.215Z,19.3
2019-01-27T07:59:49.194Z,19.4
2019-01-27T08:02:55.210Z,19.4
2019-01-27T08:06:01.484Z,19.4
2019-01-27T08:09:07.548Z,19.4
2019-01-27T08:12:13.512Z,19.4
2019-01-27T08:15:19.455Z,19.5
2019-01-27T08:18:25.515Z,19.5
2019-01-27T08:21:31.687Z,19.5
2019-01-27T08:24:37.675Z,19.5
2019-01-27T08:27:43.649Z,19.5
2019-01-27T08:30:49.659Z,19.5
2019-01-27T08:33:55.615Z,19.5
2019-01-27T08:37:01.633Z,19.6
2019-01-27T08:40:07.587Z,19.6
2019-01-27T08:43:13.605Z,19.6
2019-01-27T08:46:19.634Z,19.6
2019-01-27T08:49:25.595Z,19.6
2019-01-27T08:52:31.528Z,19.7
2019-01-27T08:55:37.581Z,19.7
2019-01-27T08:58:45.132Z,19.7
2019-01-27T09:01:51.239Z,19.7
2019-01-27T09:04:57.245Z,19.7
2019-01-27T09:08:03.133Z,19.7
2019-01-27T09:11:09.064Z,19.7
2019-01-27T09:14:14.930Z,19.7
2019-01-27T09:17:20.884Z,19.7
2019-01-27T09:20:26.948Z,19.7
2019-01-27T09:23:32.873Z,19.8
2019-01-27T09:26:38.880Z,19.8
2019-01-27T09:29:44.830Z,19.8
2019-01-27T09:32:50.779Z,19.8
2019-01-27T09:35:58.497Z,19.8
2019-01-27T09:39:04.587Z,19.8
2019-01-27T09:42:10.609Z,19.8
2019-01-27T09:45:16.502Z,19.8
2019-01-27T09:48:22.418Z,19.8
2019-01-27T09:51:28.380Z,19.8
2019-01-27T09:54:34.280Z,19.8
2019-01-27T09:57:40.315Z,19.8
2019-01-27T10:00:46.235Z,19.9
2019-01-27T10:03:52.119Z,19.9
2019-01-27T10:06:58.054Z,19.9
2019-01-27T10:10:04.114Z,19.9
2019-01-27T10:13:10.022Z,19.9
2019-01-27T10:16:15.935Z,19.9
2019-01-27T10:19:21.826Z,19.9
2019-01-27T10:22:27.800Z,19.9
2019-01-27T10:25:33.789Z,19.9
2019-01-27T10:28:39.756Z,19.9
2019-01-27T10:31:45.715Z,19.9
2019-01-27T10:34:51.715Z,20
2019-01-27T10:38:00.464Z,19.9
2019-01-27T10:41:06.384Z,20
2019-01-27T10:44:12.421Z,20
2019-01-27T10:47:18.381Z,20
2019-01-27T10:50:24.689Z,20
2019-01-27T10:53:34.802Z,20
2019-01-27T10:56:40.873Z,20
2019-01-27T10:59:46.762Z,20
2019-01-27T11:02:52.701Z,20
2019-01-27T11:05:58.723Z,20
2019-01-27T11:09:04.725Z,20
2019-01-27T11:12:10.610Z,20
2019-01-27T11:15:16.534Z,20
2019-01-27T11:18:22.473Z,20
2019-01-27T11:21:28.468Z,20
2019-01-27T11:24:34.393Z,20
2019-01-27T11:27:40.345Z,20
2019-01-27T11:30:46.249Z,20
2019-01-27T11:33:52.256Z,20
2019-01-27T11:36:58.230Z,20.1
2019-01-27T11:40:04.185Z,20.1
2019-01-27T11:43:10.183Z,20.1
2019-01-27T11:46:16.141Z,20.1
2019-01-27T11:49:22.068Z,20.1
2019-01-27T11:52:28.021Z,20.1
2019-01-27T11:55:34.027Z,20.1
2019-01-27T11:58:39.975Z,20.1
2019-01-27T12:01:45.896Z,20.1
2019-01-27T12:04:51.905Z,20.1
2019-01-27T12:07:57.853Z,20.1
2019-01-27T12:11:03.920Z,20.1
2019-01-27T12:14:09.882Z,20.1
2019-01-27T12:17:15.879Z,20.2
2019-01-27T12:20:21.887Z,20.2
2019-01-27T12:23:27.881Z,20.2
2019-01-27T12:26:33.944Z,20.2
2019-01-27T12:29:39.911Z,20.2
2019-01-27T12:32:45.861Z,20.2
2019-01-27T12:35:51.873Z,20.2
2019-01-27T12:38:57.847Z,20.2
2019-01-27T12:42:03.764Z,20.2
2019-01-27T12:45:09.679Z,20.2
2019-01-27T12:48:15.627Z,20.2
2019-01-27T12:51:21.574Z,20.2
2019-01-27T12:54:27.562Z,20.2
2019-01-27T12:57:34.539Z,20.3
2019-01-27T13:00:40.470Z,20.3
2019-01-27T13:03:46.396Z,20.3
2019-01-27T13:06:52.397Z,20.3
2019-01-27T13:09:58.446Z,20.3
2019-01-27T13:13:04.458Z,20.3
2019-01-27T13:16:15.739Z,20.3
2019-01-27T13:19:21.593Z,20.3
2019-01-27T13:22:27.513Z,20.3
2019-01-27T13:25:33.421Z,20.3
2019-01-27T13:28:39.363Z,20.3
2019-01-27T13:31:45.280Z,20.3
2019-01-27T13:34:51.249Z,20.3
2019-01-27T13:38:01.769Z,20.3
2019-01-27T13:41:07.677Z,20.3
2019-01-27T13:44:13.712Z,20.3
2019-01-27T13:47:21.244Z,20.3
2019-01-27T13:50:27.128Z,20.3
2019-01-27T13:53:33.074Z,20.3
2019-01-27T13:56:39.000Z,20.3
2019-01-27T13:59:46.124Z,20.3
2019-01-27T14:02:53.480Z,20.3
2019-01-27T14:05:59.387Z,20.3
2019-01-27T14:09:05.347Z,20.3
2019-01-27T14:12:11.317Z,20.4
2019-01-27T14:15:17.282Z,20.5
2019-01-27T14:18:23.234Z,20.5
2019-01-27T14:21:29.252Z,20.5
2019-01-27T14:24:35.334Z,20.5
2019-01-27T14:27:41.260Z,20.6
2019-01-27T14:30:47.189Z,20.7
2019-01-27T14:33:53.264Z,20.7
2019-01-27T14:36:59.294Z,20.7
2019-01-27T14:40:05.248Z,20.8
2019-01-27T14:43:11.186Z,20.7
2019-01-27T14:46:17.146Z,20.8
2019-01-27T14:49:23.031Z,20.9
2019-01-27T14:52:29.050Z,20.9
2019-01-27T14:55:35.070Z,20.9
2019-01-27T14:58:41.226Z,20.9
2019-01-27T15:01:47.181Z,20.9
2019-01-27T15:04:53.216Z,20.9
2019-01-27T15:08:00.285Z,20.8
2019-01-27T15:11:06.322Z,20.8
2019-01-27T15:14:12.334Z,20.8
2019-01-27T15:17:18.257Z,20.8
2019-01-27T15:20:24.193Z,20.8
2019-01-27T15:23:30.275Z,20.8
2019-01-27T15:26:38.395Z,20.8
2019-01-27T15:29:44.647Z,20.8
2019-01-27T15:32:50.554Z,20.8
2019-01-27T15:35:56.598Z,20.8
2019-01-27T15:39:02.477Z,20.8
2019-01-27T15:42:08.544Z,20.8
2019-01-27T15:45:14.643Z,20.8
2019-01-27T15:48:20.667Z,20.8
2019-01-27T15:51:26.709Z,20.8
2019-01-27T15:54:32.802Z,20.7
2019-01-27T15:57:38.837Z,20.7
2019-01-27T16:00:44.762Z,20.7
2019-01-27T16:03:50.716Z,20.7
2019-01-27T16:06:56.680Z,20.7
2019-01-27T16:10:02.620Z,20.7
2019-01-27T16:13:08.669Z,20.7
2019-01-27T16:16:16.345Z,20.7
2019-01-27T16:19:22.360Z,20.7
2019-01-27T16:22:28.309Z,20.7
2019-01-27T16:25:34.217Z,20.7
2019-01-27T16:28:40.265Z,20.7
2019-01-27T16:31:49.053Z,20.7
2019-01-27T16:34:54.995Z,20.7
2019-01-27T16:38:01.134Z,20.7
2019-01-27T16:41:07.089Z,20.7
2019-01-27T16:44:13.055Z,20.6
2019-01-27T16:47:19.116Z,20.6
2019-01-27T16:50:25.149Z,20.6
2019-01-27T16:53:31.148Z,20.6
2019-01-27T16:56:37.237Z,20.5
2019-01-27T16:59:43.796Z,20.5
2019-01-27T17:02:49.787Z,20.5
2019-01-27T17:05:55.792Z,20.4
2019-01-27T17:09:01.866Z,20.4
2019-01-27T17:12:07.799Z,20.4
2019-01-27T17:15:13.801Z,20.4
2019-01-27T17:18:19.794Z,20.3
2019-01-27T17:21:25.759Z,20.3
2019-01-27T17:24:31.743Z,20.3
2019-01-27T17:27:37.603Z,20.3
2019-01-27T17:30:43.540Z,20.3
2019-01-27T17:33:49.419Z,20.3
2019-01-27T17:36:55.355Z,20.2
2019-01-27T17:40:01.290Z,20.2
2019-01-27T17:43:07.191Z,20.2
2019-01-27T17:46:13.135Z,20.1
2019-01-27T17:49:19.013Z,20.1
2019-01-27T17:52:24.967Z,20.1
2019-01-27T17:55:30.921Z,20.1
2019-01-27T17:58:36.922Z,20.1
2019-01-27T18:01:42.851Z,20.1
2019-01-27T18:04:48.811Z,20.1
2019-01-27T18:07:54.661Z,20
2019-01-27T18:11:00.594Z,20
2019-01-27T18:14:06.536Z,20
2019-01-27T18:17:12.585Z,20
2019-01-27T18:20:18.588Z,20
2019-01-27T18:23:24.523Z,20
2019-01-27T18:26:30.479Z,20
2019-01-27T18:29:36.424Z,20
2019-01-27T18:32:42.463Z,20
2019-01-27T18:35:48.555Z,19.9
2019-01-27T18:38:54.461Z,19.9
2019-01-27T18:42:00.564Z,19.9
2019-01-27T18:45:06.520Z,19.9
2019-01-27T18:48:12.564Z,19.9
2019-01-27T18:51:18.630Z,19.9
2019-01-27T18:54:27.416Z,19.9
2019-01-27T18:57:36.116Z,19.9
2019-01-27T19:00:42.129Z,19.9
2019-01-27T19:03:47.975Z,19.9
2019-01-27T19:06:53.970Z,19.9
2019-01-27T19:10:00.795Z,19.8
2019-01-27T19:13:09.886Z,19.8
2019-01-27T19:16:15.805Z,19.8
2019-01-27T19:19:21.746Z,19.8
2019-01-27T19:22:27.671Z,19.8
2019-01-27T19:25:33.688Z,19.8
2019-01-27T19:28:39.541Z,19.8
2019-01-27T19:31:45.475Z,19.8
2019-01-27T19:34:51.359Z,19.8
2019-01-27T19:37:57.315Z,19.8
2019-01-27T19:41:04.603Z,19.8
2019-01-27T19:44:10.565Z,19.8
2019-01-27T19:47:16.532Z,19.8
2019-01-27T19:50:22.388Z,19.8
2019-01-27T19:53:28.386Z,19.7
2019-01-27T19:56:34.406Z,19.7
2019-01-27T19:59:40.347Z,19.7
2019-01-27T20:02:46.262Z,19.7
2019-01-27T20:05:52.235Z,19.7
2019-01-27T20:08:58.345Z,19.7
2019-01-27T20:12:04.201Z,19.7
2019-01-27T20:15:10.135Z,19.7
2019-01-27T20:18:18.734Z,19.7
2019-01-27T20:21:24.641Z,19.7
2019-01-27T20:24:30.586Z,19.7
2019-01-27T20:27:36.551Z,19.7
2019-01-27T20:30:42.415Z,19.7
2019-01-27T20:33:48.363Z,19.7
2019-01-27T20:36:54.285Z,19.6
2019-01-27T20:40:00.253Z,19.6
2019-01-27T20:43:06.256Z,19.6
2019-01-27T20:46:12.120Z,19.6
2019-01-27T20:49:18.048Z,19.6
2019-01-27T20:52:24.170Z,19.6
2019-01-27T20:55:30.098Z,19.6
2019-01-27T20:58:36.193Z,19.6
2019-01-27T21:01:42.217Z,19.5
2019-01-27T21:04:48.078Z,19.6
2019-01-27T21:07:58.984Z,19.5
2019-01-27T21:11:04.996Z,19.5
2019-01-27T21:14:10.920Z,19.5
2019-01-27T21:17:16.832Z,19.5
2019-01-27T21:20:22.821Z,19.5
2019-01-27T21:23:28.657Z,19.5
2019-01-27T21:26:34.649Z,19.5
2019-01-27T21:29:40.563Z,19.5
2019-01-27T21:32:46.491Z,19.5
2019-01-27T21:35:57.650Z,19.5
2019-01-27T21:39:03.558Z,19.5
2019-01-27T21:42:09.559Z,19.5
2019-01-27T21:45:15.479Z,19.5
2019-01-27T21:48:21.481Z,19.4
2019-01-27T21:51:27.558Z,19.4
2019-01-27T21:54:33.500Z,19.4
2019-01-27T21:57:39.417Z,19.4
2019-01-27T22:00:45.360Z,19.4
2019-01-27T22:03:51.333Z,19.4
2019-01-27T22:06:57.262Z,19.4
2019-01-27T22:10:03.254Z,19.4
2019-01-27T22:13:09.165Z,19.4
2019-01-27T22:16:15.193Z,19.4
2019-01-27T22:19:21.207Z,19.4
2019-01-27T22:22:27.173Z,19.4
2019-01-27T22:25:36.005Z,19.4
2019-01-27T22:28:41.941Z,19.4
2019-01-27T22:31:47.951Z,19.3
2019-01-27T22:34:53.859Z,19.4
2019-01-27T22:37:59.801Z,19.3
2019-01-27T22:41:05.906Z,19.3
2019-01-27T22:44:11.905Z,19.3
2019-01-27T22:47:20.757Z,19.3
2019-01-27T22:50:26.674Z,19.3
2019-01-27T22:53:32.597Z,19.3
2019-01-27T22:56:38.570Z,19.3
2019-01-27T22:59:44.448Z,19.3
2019-01-27T23:02:50.389Z,19.3
2019-01-27T23:05:56.480Z,19.3
2019-01-27T23:09:02.492Z,19.3
2019-01-27T23:12:08.505Z,19.3
2019-01-27T23:15:14.633Z,19.3
2019-01-27T23:18:20.576Z,19.3
2019-01-27T23:21:26.575Z,19.3
2019-01-27T23:24:32.584Z,19.3
2019-01-27T23:27:38.513Z,19.3
2019-01-27T23:30:44.426Z,19.2
2019-01-27T23:33:50.404Z,19.2
2019-01-27T23:36:56.307Z,19.2
2019-01-27T23:40:02.272Z,19.2
2019-01-27T23:43:08.237Z,19.2
2019-01-27T23:46:14.241Z,19.2
2019-01-27T23:49:20.163Z,19.2
2019-01-27T23:52:26.003Z,19.2
2019-01-27T23:55:31.952Z,19.2
2019-01-27T23:58:37.937Z,19.2
